Time;durP1;ratioP1;P1;durP2;ratioP2;P2;SDS_P1;SDS_P2;PMS_P1;PMS_P2;Temp;Humidity;BMP_temperature;BMP_pressure;BME280_temperature;BME280_humidity;BME280_pressure;Samples;Min_cycle;Max_cycle;Signal;HPM_P1;HPM_P2
2021/08/07 00:01:24;;;;;;;8.25;3.28;;;20.30;1.00;;;;;;5070973;28;20029;-79
2021/08/07 00:03:51;;;;;;;6.28;3.00;;;20.20;1.00;;;;;;5070891;28;20044;-79
2021/08/07 00:06:16;;;;;;;5.90;2.70;;;20.10;1.00;;;;;;5070207;28;20448;-79
2021/08/07 00:08:42;;;;;;;3.85;2.75;;;20.00;1.00;;;;;;5071005;28;20119;-79
2021/08/07 00:11:08;;;;;;;4.80;3.25;;;19.90;1.00;;;;;;5070411;28;20027;-79
2021/08/07 00:13:33;;;;;;;5.90;3.65;;;19.80;1.00;;;;;;5073313;28;20036;-79
2021/08/07 00:15:59;;;;;;;3.97;2.90;;;19.70;1.00;;;;;;5069991;28;20059;-79
2021/08/07 00:18:25;;;;;;;7.55;3.10;;;19.80;1.00;;;;;;5070441;28;20033;-79
2021/08/07 00:20:51;;;;;;;5.25;3.25;;;19.80;1.00;;;;;;5070927;28;20111;-79
2021/08/07 00:23:17;;;;;;;6.07;3.28;;;19.70;1.00;;;;;;5051771;28;20421;-79
2021/08/07 00:25:42;;;;;;;5.03;2.80;;;19.50;1.00;;;;;;5071962;28;20039;-80
2021/08/07 00:28:08;;;;;;;8.25;3.10;;;19.50;1.00;;;;;;5069280;28;20029;-80
2021/08/07 00:30:34;;;;;;;4.90;2.97;;;19.50;1.00;;;;;;5070221;28;20493;-79
2021/08/07 00:33:00;;;;;;;6.32;3.20;;;19.60;1.00;;;;;;5069219;28;20485;-79
2021/08/07 00:35:27;;;;;;;6.07;3.35;;;19.60;1.00;;;;;;5070122;28;20111;-79
2021/08/07 00:37:53;;;;;;;4.85;2.95;;;19.60;1.00;;;;;;5072122;28;20028;-79
2021/08/07 00:40:18;;;;;;;6.57;3.10;;;19.60;1.00;;;;;;5070952;28;20404;-79
2021/08/07 00:42:44;;;;;;;6.20;3.17;;;19.60;1.00;;;;;;5069949;28;20028;-79
2021/08/07 00:45:10;;;;;;;5.68;3.15;;;19.60;1.00;;;;;;5070156;28;20405;-79
2021/08/07 00:47:36;;;;;;;5.82;2.60;;;19.50;1.00;;;;;;5069384;28;20036;-79
2021/08/07 00:50:03;;;;;;;5.75;2.70;;;19.60;1.00;;;;;;5070158;28;20465;-79
2021/08/07 00:52:29;;;;;;;5.63;2.60;;;19.60;1.00;;;;;;5072210;28;20056;-79
2021/08/07 00:54:55;;;;;;;3.83;2.80;;;19.70;1.00;;;;;;5070136;28;20055;-79
2021/08/07 00:57:21;;;;;;;5.85;3.05;;;19.60;1.00;;;;;;5069889;28;20026;-79
2021/08/07 00:59:47;;;;;;;4.63;2.63;;;19.70;1.00;;;;;;5069996;28;20032;-79
2021/08/07 01:02:16;;;;;;;5.30;2.92;;;19.60;1.00;;;;;;5068588;28;20168;-79
2021/08/07 01:05:00;;;;;;;3.60;2.78;;;19.50;1.00;;;;;;5071759;28;20097;-79
2021/08/07 01:07:46;;;;;;;5.28;2.47;;;19.50;1.00;;;;;;5070692;28;20021;-79
2021/08/07 01:10:39;;;;;;;5.25;2.80;;;19.50;1.00;;;;;;5069923;28;20056;-79
2021/08/07 01:13:14;;;;;;;4.32;2.70;;;19.70;1.00;;;;;;5009379;28;20418;-79
2021/08/07 01:15:48;;;;;;;5.53;2.58;;;19.60;1.00;;;;;;5007940;28;20541;-79
2021/08/07 01:18:18;;;;;;;7.00;3.10;;;19.50;1.00;;;;;;5008618;28;20034;-79
2021/08/07 01:20:49;;;;;;;4.35;2.70;;;19.50;1.00;;;;;;5009097;28;20026;-79
2021/08/07 01:23:17;;;;;;;3.95;2.90;;;19.40;1.00;;;;;;5008768;28;20041;-79
2021/08/07 01:26:06;;;;;;;5.50;2.75;;;19.50;1.00;;;;;;5009480;28;20030;-79
2021/08/07 01:28:37;;;;;;;5.28;2.88;;;19.40;1.00;;;;;;5009609;28;20027;-79
2021/08/07 01:31:04;;;;;;;4.07;2.40;;;19.50;1.00;;;;;;5007699;28;20490;-79
2021/08/07 01:33:32;;;;;;;5.70;3.15;;;19.50;1.00;;;;;;5009024;28;20116;-79
2021/08/07 01:35:58;;;;;;;4.93;2.92;;;19.50;1.00;;;;;;5008788;28;20510;-78
2021/08/07 01:38:24;;;;;;;5.40;2.70;;;19.60;1.00;;;;;;5008735;28;20124;-79
2021/08/07 01:40:50;;;;;;;5.57;2.85;;;19.60;1.00;;;;;;5009424;28;20105;-79
2021/08/07 01:43:15;;;;;;;4.47;2.70;;;19.60;1.00;;;;;;5008970;28;20193;-79
2021/08/07 01:45:47;;;;;;;3.53;2.50;;;19.70;1.00;;;;;;5008014;28;20026;-79
2021/08/07 01:48:38;;;;;;;5.40;2.83;;;19.70;1.00;;;;;;5008090;28;20057;-79
2021/08/07 01:51:22;;;;;;;6.47;2.75;;;19.70;1.00;;;;;;5064674;28;20032;-79
2021/08/07 01:53:50;;;;;;;6.47;2.75;;;19.70;1.00;;;;;;5069206;28;20464;-79
2021/08/07 01:56:27;;;;;;;5.07;2.40;;;19.70;1.00;;;;;;5072333;28;20036;-79
2021/08/07 01:58:59;;;;;;;4.45;2.55;;;19.70;1.00;;;;;;5071907;28;20051;-79
2021/08/07 02:01:28;;;;;;;4.40;2.55;;;19.70;1.00;;;;;;5073086;28;20033;-79
2021/08/07 02:03:54;;;;;;;4.35;2.95;;;19.60;1.00;;;;;;5073344;28;20029;-79
2021/08/07 02:06:22;;;;;;;3.58;2.70;;;19.60;1.00;;;;;;5073034;28;20108;-79
2021/08/07 02:08:48;;;;;;;5.38;2.80;;;19.40;1.00;;;;;;5073420;28;20123;-79
2021/08/07 02:11:16;;;;;;;4.72;3.00;;;19.50;1.00;;;;;;5073600;28;20060;-79
2021/08/07 02:13:42;;;;;;;7.75;2.70;;;19.50;1.00;;;;;;5074852;28;20016;-79
2021/08/07 02:16:08;;;;;;;3.25;2.53;;;19.40;1.00;;;;;;5053843;28;20393;-79
2021/08/07 02:18:35;;;;;;;7.20;3.17;;;19.30;1.00;;;;;;5073313;28;20028;-79
2021/08/07 02:21:01;;;;;;;5.75;2.72;;;19.30;1.00;;;;;;5071486;28;20027;-79
2021/08/07 02:23:27;;;;;;;3.50;2.50;;;19.30;1.00;;;;;;5071352;28;20033;-79
2021/08/07 02:26:00;;;;;;;4.53;2.75;;;19.40;1.00;;;;;;5074975;28;20035;-79
2021/08/07 02:28:27;;;;;;;5.97;2.53;;;19.40;1.00;;;;;;5073962;28;20429;-79
2021/08/07 02:30:53;;;;;;;5.68;2.78;;;19.30;1.00;;;;;;5071316;28;20116;-79
2021/08/07 02:33:21;;;;;;;4.65;2.60;;;19.30;1.00;;;;;;5072672;28;20036;-79
2021/08/07 02:35:49;;;;;;;4.90;2.70;;;19.30;1.00;;;;;;5072930;28;20435;-79
2021/08/07 02:38:16;;;;;;;4.75;2.80;;;19.20;1.00;;;;;;5072536;28;20032;-79
2021/08/07 02:40:42;;;;;;;4.18;2.53;;;19.20;1.00;;;;;;5074439;28;20484;-79
2021/08/07 02:43:08;;;;;;;6.53;2.72;;;19.30;1.00;;;;;;5072690;28;20122;-79
2021/08/07 02:45:35;;;;;;;6.50;2.97;;;19.20;1.00;;;;;;5072588;28;20033;-79
2021/08/07 02:48:01;;;;;;;2.65;2.25;;;19.30;1.00;;;;;;5071951;28;20043;-79
2021/08/07 02:50:27;;;;;;;5.07;2.55;;;19.20;1.00;;;;;;5072392;28;20039;-79
2021/08/07 02:52:55;;;;;;;8.32;2.60;;;19.10;1.00;;;;;;5073872;28;20024;-79
2021/08/07 02:55:22;;;;;;;8.20;3.15;;;19.10;1.00;;;;;;5072670;28;20044;-79
2021/08/07 02:57:51;;;;;;;4.38;2.30;;;19.20;1.00;;;;;;5072409;28;20104;-79
2021/08/07 03:00:18;;;;;;;5.45;2.47;;;19.10;1.00;;;;;;5069860;28;20024;-79
2021/08/07 03:02:44;;;;;;;6.88;2.60;;;19.10;1.00;;;;;;5072473;28;20485;-79
2021/08/07 03:05:10;;;;;;;5.57;2.50;;;19.10;1.00;;;;;;5072408;28;20094;-79
2021/08/07 03:07:36;;;;;;;5.00;2.83;;;19.10;1.00;;;;;;5054705;28;20027;-79
2021/08/07 03:10:05;;;;;;;4.18;2.30;;;19.10;1.00;;;;;;5072079;28;20028;-79
2021/08/07 03:12:31;;;;;;;5.45;2.60;;;19.00;1.00;;;;;;5071960;28;20081;-79
2021/08/07 03:14:56;;;;;;;6.85;2.47;;;18.90;1.00;;;;;;5069845;28;20029;-79
2021/08/07 03:17:22;;;;;;;10.27;2.50;;;18.90;1.00;;;;;;5072218;28;20037;-80
2021/08/07 03:19:47;;;;;;;4.10;2.72;;;18.90;1.00;;;;;;5073270;28;20082;-79
2021/08/07 03:22:13;;;;;;;5.03;2.30;;;19.00;1.00;;;;;;5072490;28;20033;-79
2021/08/07 03:24:39;;;;;;;5.45;2.60;;;19.00;1.00;;;;;;5071566;28;20072;-79
2021/08/07 03:27:04;;;;;;;4.35;2.42;;;19.00;1.00;;;;;;5071638;28;20033;-79
2021/08/07 03:29:30;;;;;;;6.85;2.88;;;18.90;1.00;;;;;;5070471;28;20028;-79
2021/08/07 03:31:56;;;;;;;3.67;2.33;;;18.80;1.00;;;;;;5073024;28;20485;-79
2021/08/07 03:34:21;;;;;;;4.03;2.70;;;18.70;1.00;;;;;;5072237;28;20025;-79
2021/08/07 03:36:47;;;;;;;2.97;2.20;;;18.70;1.00;;;;;;5071644;28;20025;-79
2021/08/07 03:39:12;;;;;;;3.70;2.50;;;18.70;1.00;;;;;;5070184;28;20150;-79
2021/08/07 03:41:38;;;;;;;5.18;2.53;;;18.70;1.00;;;;;;5070125;28;20592;-79
2021/08/07 03:44:04;;;;;;;4.55;2.28;;;18.80;1.00;;;;;;5070657;28;20032;-79
2021/08/07 03:46:29;;;;;;;4.68;2.40;;;18.70;1.00;;;;;;5072866;28;20048;-79
2021/08/07 03:48:55;;;;;;;5.03;2.40;;;18.70;1.00;;;;;;5071545;28;20025;-79
2021/08/07 03:51:21;;;;;;;7.30;2.55;;;18.80;1.00;;;;;;5071214;28;20112;-79
2021/08/07 03:53:46;;;;;;;4.57;2.42;;;18.80;1.00;;;;;;5071215;28;20408;-79
2021/08/07 03:56:12;;;;;;;3.25;2.40;;;18.80;1.00;;;;;;5071673;28;20025;-79
2021/08/07 03:58:37;;;;;;;8.48;2.72;;;18.80;1.00;;;;;;5071638;28;20051;-79
2021/08/07 04:01:03;;;;;;;5.82;2.75;;;18.70;1.00;;;;;;5071285;28;20319;-79
2021/08/07 04:03:29;;;;;;;2.85;2.40;;;18.80;1.00;;;;;;5070708;28;20037;-79
2021/08/07 04:05:54;;;;;;;4.75;2.42;;;18.90;1.00;;;;;;5071276;28;20056;-80
2021/08/07 04:08:20;;;;;;;5.38;2.65;;;18.90;1.00;;;;;;5071426;28;20516;-79
2021/08/07 04:10:45;;;;;;;9.63;2.38;;;18.90;1.00;;;;;;5072862;28;20028;-79
2021/08/07 04:13:11;;;;;;;3.08;2.60;;;18.80;1.00;;;;;;5069782;28;20069;-79
2021/08/07 04:15:38;;;;;;;7.45;2.80;;;18.70;1.00;;;;;;5052920;28;20553;-79
2021/08/07 04:18:04;;;;;;;4.95;2.63;;;18.80;1.00;;;;;;5068998;28;20021;-79
2021/08/07 04:20:29;;;;;;;4.60;2.70;;;18.80;1.00;;;;;;5069325;28;20040;-79
2021/08/07 04:22:55;;;;;;;6.25;2.70;;;18.90;1.00;;;;;;5072171;28;20129;-78
2021/08/07 04:25:21;;;;;;;4.20;2.50;;;18.80;1.00;;;;;;5071532;28;20039;-79
2021/08/07 04:27:46;;;;;;;4.18;2.60;;;18.80;1.00;;;;;;5069497;28;20029;-79
2021/08/07 04:30:12;;;;;;;4.38;2.58;;;18.80;1.00;;;;;;5070377;28;20025;-79
2021/08/07 04:32:38;;;;;;;3.90;2.53;;;18.90;1.00;;;;;;5070170;28;20089;-79
2021/08/07 04:35:05;;;;;;;4.57;2.35;;;18.90;1.00;;;;;;5070743;28;20488;-79
2021/08/07 04:37:31;;;;;;;5.57;2.85;;;19.00;1.00;;;;;;5070584;28;20477;-79
2021/08/07 04:39:56;;;;;;;5.38;2.72;;;18.90;1.00;;;;;;5070415;28;20104;-79
2021/08/07 04:42:22;;;;;;;5.22;2.58;;;19.00;1.00;;;;;;5068890;28;20481;-79
2021/08/07 04:44:48;;;;;;;4.75;2.75;;;18.90;1.00;;;;;;5070253;28;20115;-79
2021/08/07 04:47:13;;;;;;;3.58;2.20;;;19.00;1.00;;;;;;5069864;28;20131;-79
2021/08/07 04:49:39;;;;;;;2.63;2.38;;;19.00;1.00;;;;;;5071827;28;20085;-79
2021/08/07 04:52:05;;;;;;;4.47;2.67;;;19.00;1.00;;;;;;5070013;28;20063;-79
2021/08/07 04:54:31;;;;;;;4.13;2.50;;;19.00;1.00;;;;;;5069944;28;20405;-79
2021/08/07 04:56:57;;;;;;;4.88;2.50;;;19.10;1.00;;;;;;5067589;28;20028;-79
2021/08/07 04:59:23;;;;;;;4.82;2.63;;;19.00;1.00;;;;;;5068586;28;20028;-79
2021/08/07 05:01:48;;;;;;;2.97;2.50;;;19.10;1.00;;;;;;5072032;28;20074;-79
2021/08/07 05:04:14;;;;;;;5.15;2.70;;;19.10;1.00;;;;;;5069769;28;20044;-79
2021/08/07 05:06:39;;;;;;;3.15;2.30;;;19.10;1.00;;;;;;5069773;28;20043;-78
2021/08/07 05:09:05;;;;;;;4.45;2.45;;;19.10;1.00;;;;;;5069769;28;20078;-79
2021/08/07 05:11:31;;;;;;;4.32;2.50;;;19.20;1.00;;;;;;5069538;28;20035;-79
2021/08/07 05:13:57;;;;;;;5.45;2.30;;;19.20;1.00;;;;;;5071028;28;20113;-79
2021/08/07 05:16:23;;;;;;;4.43;2.58;;;19.20;1.00;;;;;;5069943;28;20035;-79
2021/08/07 05:18:48;;;;;;;4.53;2.50;;;19.20;1.00;;;;;;5068176;28;20025;-81
2021/08/07 05:21:14;;;;;;;9.88;3.00;;;19.40;1.00;;;;;;5070030;28;20485;-80
2021/08/07 05:23:39;;;;;;;5.38;3.15;;;19.30;1.00;;;;;;5069327;28;20037;-81
2021/08/07 05:26:05;;;;;;;6.30;2.72;;;19.40;1.00;;;;;;5069599;28;20029;-81
2021/08/07 05:28:31;;;;;;;5.28;2.60;;;19.50;1.00;;;;;;5068422;28;20028;-81
2021/08/07 05:30:56;;;;;;;5.47;2.53;;;19.60;1.00;;;;;;5066548;28;20056;-81
2021/08/07 05:33:22;;;;;;;4.65;2.45;;;19.60;1.00;;;;;;5069474;28;20040;-81
2021/08/07 05:35:47;;;;;;;4.60;2.80;;;19.60;1.00;;;;;;5068888;28;20079;-81
2021/08/07 05:38:13;;;;;;;4.57;2.33;;;19.80;1.00;;;;;;5069005;28;23189;-81
2021/08/07 05:40:38;;;;;;;5.32;2.42;;;19.90;1.00;;;;;;5070340;28;20028;-81
2021/08/07 05:43:04;;;;;;;5.78;2.75;;;19.80;1.00;;;;;;5050334;28;20067;-81
2021/08/07 05:45:30;;;;;;;4.25;2.75;;;19.90;1.00;;;;;;5069580;28;20029;-82
2021/08/07 05:47:55;;;;;;;4.97;2.70;;;19.80;1.00;;;;;;5069032;28;20152;-81
2021/08/07 05:50:21;;;;;;;3.60;2.50;;;19.90;1.00;;;;;;5070283;28;20473;-81
2021/08/07 05:52:47;;;;;;;4.20;2.70;;;19.90;1.00;;;;;;5071006;28;20035;-80
2021/08/07 05:55:12;;;;;;;6.32;2.75;;;20.00;1.00;;;;;;5069518;28;20032;-82
2021/08/07 05:57:38;;;;;;;4.22;2.72;;;20.00;1.00;;;;;;5069813;28;20027;-81
2021/08/07 06:00:05;;;;;;;8.18;3.17;;;20.00;1.00;;;;;;5069174;28;20037;-80
2021/08/07 06:02:34;;;;;;;4.95;3.03;;;20.00;1.00;;;;;;5069281;28;20028;-81
2021/08/07 06:05:00;;;;;;;4.07;2.72;;;20.10;1.00;;;;;;5070259;28;20125;-82
2021/08/07 06:07:26;;;;;;;6.35;2.50;;;20.10;1.00;;;;;;5069602;28;20107;-82
2021/08/07 06:09:51;;;;;;;8.68;3.50;;;20.00;1.00;;;;;;5069425;28;20024;-82
2021/08/07 06:12:17;;;;;;;6.63;2.90;;;20.00;1.00;;;;;;5067884;28;20112;-82
2021/08/07 06:14:43;;;;;;;5.63;3.03;;;19.90;1.00;;;;;;5067991;28;20024;-82
2021/08/07 06:17:09;;;;;;;6.22;2.67;;;19.90;1.00;;;;;;5069474;28;20123;-82
2021/08/07 06:19:35;;;;;;;4.75;2.88;;;20.00;1.00;;;;;;5059440;28;20131;-82
2021/08/07 06:22:01;;;;;;;8.60;2.78;;;20.00;1.00;;;;;;5066841;28;20037;-81
2021/08/07 06:24:27;;;;;;;3.72;2.75;;;20.00;1.00;;;;;;5068568;28;20512;-82
2021/08/07 06:26:53;;;;;;;6.28;3.10;;;19.90;1.00;;;;;;5066031;28;20040;-82
2021/08/07 06:29:18;;;;;;;6.47;2.70;;;20.00;1.00;;;;;;5068619;28;20041;-82
2021/08/07 06:31:44;;;;;;;4.57;2.78;;;20.10;1.00;;;;;;5070478;28;20020;-82
2021/08/07 06:34:10;;;;;;;4.80;2.85;;;20.00;1.00;;;;;;5068578;28;20093;-82
2021/08/07 06:36:35;;;;;;;6.97;3.15;;;20.00;1.00;;;;;;5069037;28;20437;-82
2021/08/07 06:39:02;;;;;;;5.55;3.15;;;20.10;1.00;;;;;;5067070;28;20031;-81
2021/08/07 06:41:27;;;;;;;3.85;2.75;;;20.10;1.00;;;;;;5069195;28;20058;-81
2021/08/07 06:43:53;;;;;;;6.78;2.95;;;20.20;1.00;;;;;;5073948;28;20113;-81
2021/08/07 06:46:19;;;;;;;8.48;3.30;;;20.10;1.00;;;;;;5072655;28;20033;-81
2021/08/07 06:48:44;;;;;;;4.15;2.92;;;20.10;1.00;;;;;;5071922;28;20029;-81
2021/08/07 06:51:10;;;;;;;5.60;2.97;;;20.20;1.00;;;;;;5071603;28;20028;-81
2021/08/07 06:53:36;;;;;;;8.13;3.63;;;20.30;1.00;;;;;;5070948;28;20429;-81
2021/08/07 06:56:01;;;;;;;6.72;3.08;;;20.10;1.00;;;;;;5054373;28;20048;-81
2021/08/07 06:58:27;;;;;;;5.65;2.70;;;20.10;1.00;;;;;;5072924;28;20032;-81
2021/08/07 07:00:52;;;;;;;4.88;2.80;;;20.10;1.00;;;;;;5071779;28;20033;-81
2021/08/07 07:03:18;;;;;;;6.35;2.88;;;20.10;1.00;;;;;;5069173;28;20033;-81
2021/08/07 07:05:44;;;;;;;8.63;3.45;;;20.10;1.00;;;;;;5065052;28;20036;-81
2021/08/07 07:08:10;;;;;;;7.85;2.85;;;20.10;1.00;;;;;;5066206;28;20028;-81
2021/08/07 07:10:37;;;;;;;4.22;2.60;;;20.10;1.00;;;;;;5067079;28;20127;-81
2021/08/07 07:13:03;;;;;;;6.50;2.65;;;20.20;1.00;;;;;;5068325;28;20103;-81
2021/08/07 07:15:29;;;;;;;8.05;2.72;;;20.30;1.00;;;;;;5067537;28;20109;-81
2021/08/07 07:17:55;;;;;;;5.88;2.80;;;20.30;1.00;;;;;;5067022;28;20485;-82
2021/08/07 07:20:21;;;;;;;5.15;2.85;;;20.20;1.00;;;;;;5071294;28;20070;-82
2021/08/07 07:22:47;;;;;;;7.50;2.90;;;20.30;1.00;;;;;;5073307;28;20024;-81
2021/08/07 07:25:14;;;;;;;7.35;2.83;;;20.30;1.00;;;;;;5070239;28;20039;-82
2021/08/07 07:27:40;;;;;;;4.32;2.58;;;20.40;1.00;;;;;;5071875;28;20120;-82
2021/08/07 07:30:07;;;;;;;4.97;2.67;;;20.40;1.00;;;;;;5071577;28;20039;-82
2021/08/07 07:32:33;;;;;;;6.20;2.95;;;20.40;1.00;;;;;;5070182;28;20021;-82
2021/08/07 07:35:00;;;;;;;5.03;3.17;;;20.40;1.00;;;;;;5071888;28;20532;-82
2021/08/07 07:37:26;;;;;;;5.07;3.10;;;20.40;1.00;;;;;;5069919;28;20037;-83
2021/08/07 07:39:52;;;;;;;5.40;2.90;;;20.20;1.00;;;;;;5071174;28;20519;-82
2021/08/07 07:42:17;;;;;;;5.05;2.70;;;20.20;1.00;;;;;;5072203;28;20040;-81
2021/08/07 07:44:44;;;;;;;6.65;3.15;;;20.10;1.00;;;;;;5072514;28;20132;-82
2021/08/07 07:47:09;;;;;;;6.65;2.90;;;20.10;1.00;;;;;;5071163;28;20057;-82
2021/08/07 07:49:35;;;;;;;4.13;2.55;;;20.10;1.00;;;;;;5072991;28;20097;-86
2021/08/07 07:52:00;;;;;;;6.78;2.92;;;20.00;1.00;;;;;;5071876;28;20028;-86
2021/08/07 07:54:26;;;;;;;7.88;2.78;;;20.00;1.00;;;;;;5071274;28;20029;-86
2021/08/07 07:56:52;;;;;;;4.35;2.90;;;20.00;1.00;;;;;;5069514;28;20020;-86
2021/08/07 07:59:17;;;;;;;6.95;3.08;;;19.70;1.00;;;;;;5070141;28;20067;-81
2021/08/07 08:01:43;;;;;;;5.22;2.47;;;19.70;1.00;;;;;;5072678;28;20381;-82
2021/08/07 08:04:09;;;;;;;4.90;2.63;;;19.60;1.00;;;;;;5070506;28;20127;-82
2021/08/07 08:06:34;;;;;;;6.43;3.00;;;19.70;1.00;;;;;;5064018;28;20024;-82
2021/08/07 08:09:00;;;;;;;6.10;2.95;;;19.80;1.00;;;;;;5070670;28;20051;-83
2021/08/07 08:11:26;;;;;;;7.80;3.13;;;19.70;1.00;;;;;;5069002;28;20024;-82
2021/08/07 08:13:51;;;;;;;4.47;3.10;;;19.70;1.00;;;;;;5071741;28;20064;-82
2021/08/07 08:16:17;;;;;;;6.22;3.13;;;19.60;1.00;;;;;;5069346;28;20029;-82
2021/08/07 08:18:43;;;;;;;5.32;3.10;;;19.60;1.00;;;;;;5069850;28;20029;-81
2021/08/07 08:21:08;;;;;;;5.72;3.40;;;19.60;1.00;;;;;;5070507;28;20078;-83
2021/08/07 08:23:34;;;;;;;6.03;3.10;;;19.50;1.00;;;;;;5070445;28;20041;-82
2021/08/07 08:26:00;;;;;;;9.10;3.50;;;19.40;1.00;;;;;;5071864;28;20111;-83
2021/08/07 08:28:26;;;;;;;5.25;3.17;;;19.40;1.00;;;;;;5069735;28;20032;-82
2021/08/07 08:30:51;;;;;;;7.28;3.25;;;19.40;1.00;;;;;;5037442;28;20508;-82
2021/08/07 08:33:17;;;;;;;7.45;3.63;;;19.20;1.00;;;;;;5069957;28;20055;-82
2021/08/07 08:35:43;;;;;;;6.07;3.42;;;19.20;1.00;;;;;;5069189;28;20028;-83
2021/08/07 08:38:11;;;;;;;7.50;3.33;;;19.40;1.00;;;;;;5070026;28;20035;-83
2021/08/07 08:40:36;;;;;;;6.45;3.75;;;19.50;1.00;;;;;;5070558;28;20028;-83
2021/08/07 08:43:02;;;;;;;6.93;3.38;;;19.60;1.00;;;;;;5070422;28;20111;-82
2021/08/07 08:45:28;;;;;;;5.80;3.72;;;19.80;1.00;;;;;;5070082;28;20424;-83
2021/08/07 08:47:56;;;;;;;4.35;3.47;;;19.80;1.00;;;;;;5069834;28;20127;-82
2021/08/07 08:50:22;;;;;;;7.10;3.88;;;19.80;1.00;;;;;;5052910;28;20052;-82
2021/08/07 08:52:54;;;;;;;9.27;3.97;;;19.60;1.00;;;;;;5067627;28;20021;-82
2021/08/07 08:55:20;;;;;;;6.88;3.75;;;19.60;1.00;;;;;;5068058;28;20048;-82
2021/08/07 08:57:46;;;;;;;6.50;3.95;;;19.70;1.00;;;;;;5070149;28;20389;-82
2021/08/07 09:00:12;;;;;;;6.13;3.90;;;19.70;1.00;;;;;;5070735;28;20121;-82
2021/08/07 09:02:38;;;;;;;6.75;4.20;;;19.80;1.00;;;;;;5069403;28;20865;-83
2021/08/07 09:05:08;;;;;;;8.25;3.92;;;19.80;1.00;;;;;;5069535;28;20496;-82
2021/08/07 09:07:33;;;;;;;5.28;3.80;;;19.90;1.00;;;;;;5069525;28;20029;-82
2021/08/07 09:09:59;;;;;;;6.63;4.15;;;19.90;1.00;;;;;;5068340;28;20044;-82
2021/08/07 09:12:42;;;;;;;7.13;4.13;;;19.70;1.00;;;;;;5069879;28;20647;-82
2021/08/07 09:15:35;;;;;;;7.55;4.03;;;20.10;1.00;;;;;;5069429;28;20456;-82
2021/08/07 09:18:10;;;;;;;6.25;4.20;;;20.10;1.00;;;;;;5062745;28;20036;-82
2021/08/07 09:20:36;;;;;;;8.93;4.10;;;19.80;1.00;;;;;;5069155;28;20107;-82
2021/08/07 09:23:02;;;;;;;7.28;4.28;;;19.80;1.00;;;;;;5069400;28;20154;-83
2021/08/07 09:25:34;;;;;;;5.35;4.40;;;19.80;1.00;;;;;;5070382;28;20147;-82
2021/08/07 09:28:00;;;;;;;6.18;4.13;;;20.10;1.00;;;;;;5069271;28;20409;-82
2021/08/07 09:30:31;;;;;;;6.35;4.13;;;20.10;1.00;;;;;;5067492;28;20037;-82
2021/08/07 09:32:59;;;;;;;5.65;4.38;;;19.90;1.00;;;;;;5070041;28;20020;-83
2021/08/07 09:35:29;;;;;;;7.40;4.50;;;19.60;1.00;;;;;;5069525;28;20079;-82
2021/08/07 09:38:20;;;;;;;5.72;3.90;;;19.60;1.00;;;;;;5068259;28;20032;-81
2021/08/07 09:40:58;;;;;;;5.35;3.95;;;19.80;1.00;;;;;;5057995;28;20068;-82
2021/08/07 09:43:30;;;;;;;7.32;4.13;;;19.70;1.00;;;;;;5068358;28;20129;-83
2021/08/07 09:46:03;;;;;;;7.13;4.57;;;19.50;1.00;;;;;;5068713;28;20458;-82
2021/08/07 09:48:46;;;;;;;6.90;4.28;;;19.60;1.00;;;;;;5068662;28;20126;-84
2021/08/07 09:51:17;;;;;;;6.70;4.57;;;19.80;1.00;;;;;;5051482;28;20024;-83
2021/08/07 09:53:44;;;;;;;6.75;4.20;;;19.40;1.00;;;;;;5069423;28;20508;-83
2021/08/07 09:56:09;;;;;;;6.13;4.00;;;19.40;1.00;;;;;;5069311;28;20028;-83
2021/08/07 09:58:36;;;;;;;5.75;4.18;;;19.40;1.00;;;;;;5071086;28;20028;-81
2021/08/07 10:01:02;;;;;;;8.07;4.65;;;19.50;1.00;;;;;;5068033;28;20021;-82
2021/08/07 10:03:33;;;;;;;7.25;4.22;;;19.50;1.00;;;;;;5069028;28;20397;-82
2021/08/07 10:06:19;;;;;;;5.38;4.10;;;19.70;1.00;;;;;;5069218;28;20052;-81
2021/08/07 10:08:50;;;;;;;5.80;4.40;;;19.60;1.00;;;;;;5070472;28;20100;-82
2021/08/07 10:11:20;;;;;;;6.15;4.18;;;19.50;1.00;;;;;;5072102;28;20505;-86
2021/08/07 10:13:46;;;;;;;7.35;3.75;;;19.40;1.00;;;;;;5069865;28;20023;-78
2021/08/07 10:16:14;;;;;;;4.95;3.70;;;19.30;1.00;;;;;;5070666;28;20037;-85
2021/08/07 10:18:43;;;;;;;4.65;2.70;;;19.30;1.00;;;;;;5073612;28;20409;-84
2021/08/07 10:21:10;;;;;;;5.13;3.05;;;19.10;1.00;;;;;;5073507;28;20082;-84
2021/08/07 10:23:36;;;;;;;5.95;3.28;;;18.90;1.00;;;;;;5073520;28;20020;-86
2021/08/07 10:26:02;;;;;;;4.88;3.00;;;18.60;1.00;;;;;;5074839;28;20049;-85
2021/08/07 10:28:30;;;;;;;8.40;3.22;;;18.30;1.00;;;;;;5072929;28;20075;-85
2021/08/07 10:30:58;;;;;;;4.72;2.08;;;18.10;1.00;;;;;;5072896;28;20035;-81
2021/08/07 10:33:25;;;;;;;3.63;2.25;;;17.70;1.00;;;;;;5073221;28;20050;-81
2021/08/07 10:35:54;;;;;;;5.72;2.72;;;17.70;1.00;;;;;;5072618;28;20032;-83
2021/08/07 10:38:20;;;;;;;3.10;2.10;;;17.20;1.00;;;;;;5072955;28;20036;-86
2021/08/07 10:40:47;;;;;;;6.05;2.42;;;17.00;1.00;;;;;;5074842;28;20032;-84
2021/08/07 10:43:15;;;;;;;4.95;2.30;;;17.10;1.00;;;;;;5071545;28;20024;-84
2021/08/07 10:45:42;;;;;;;4.53;2.03;;;17.20;1.00;;;;;;5072540;28;20037;-82
2021/08/07 10:48:43;;;;;;;3.28;2.00;;;17.60;1.00;;;;;;5071395;28;20048;-82
2021/08/07 10:51:24;;;;;;;2.15;1.75;;;17.80;1.00;;;;;;5071538;28;20021;-81
2021/08/07 10:53:52;;;;;;;4.95;1.92;;;17.80;1.00;;;;;;5072471;28;20032;-81
2021/08/07 10:56:32;;;;;;;5.05;1.63;;;18.00;1.00;;;;;;5071065;28;20032;-81
2021/08/07 10:59:19;;;;;;;3.90;1.70;;;17.70;1.00;;;;;;5070394;28;20029;-81
2021/08/07 11:01:47;;;;;;;5.13;2.45;;;17.80;1.00;;;;;;5073653;28;20032;-82
2021/08/07 11:04:17;;;;;;;4.47;2.20;;;18.10;1.00;;;;;;5071794;28;20489;-84
2021/08/07 11:06:46;;;;;;;2.78;2.00;;;18.20;1.00;;;;;;5054116;28;20032;-84
2021/08/07 11:09:28;;;;;;;3.53;1.88;;;18.20;1.00;;;;;;5071368;28;20481;-85
2021/08/07 11:12:05;;;;;;;5.13;2.28;;;18.20;1.00;;;;;;5064354;28;20489;-83
2021/08/07 11:14:34;;;;;;;5.38;2.38;;;18.30;1.00;;;;;;5057869;28;20035;-82
2021/08/07 11:17:03;;;;;;;5.55;2.00;;;18.50;1.00;;;;;;5073652;28;20032;-85
2021/08/07 11:20:05;;;;;;;4.53;1.70;;;18.50;1.00;;;;;;5073065;28;20028;-85
2021/08/07 11:22:44;;;;;;;6.95;3.00;;;18.40;1.00;;;;;;5073979;28;20492;-81
2021/08/07 11:25:19;;;;;;;3.08;1.80;;;18.20;1.00;;;;;;5070739;28;20044;-81
2021/08/07 11:27:44;;;;;;;4.57;1.80;;;18.30;1.00;;;;;;5069332;28;20036;-82
2021/08/07 11:30:19;;;;;;;2.72;1.65;;;18.20;1.00;;;;;;5051762;28;20500;-81
2021/08/07 11:32:57;;;;;;;4.60;1.70;;;18.20;1.00;;;;;;5071638;28;20117;-81
2021/08/07 11:35:49;;;;;;;1.95;1.60;;;18.00;1.00;;;;;;5056015;28;20501;-81
2021/08/07 11:38:23;;;;;;;4.35;1.50;;;17.70;1.00;;;;;;5068437;28;20036;-81
2021/08/07 11:40:50;;;;;;;3.70;1.90;;;17.50;1.00;;;;;;5073639;28;20058;-84
2021/08/07 11:43:43;;;;;;;3.22;1.63;;;17.60;1.00;;;;;;5071595;28;20070;-82
2021/08/07 11:46:17;;;;;;;4.30;1.77;;;17.70;1.00;;;;;;5063870;28;20036;-81
2021/08/07 11:48:53;;;;;;;4.93;2.00;;;18.10;1.00;;;;;;5071451;28;20492;-81
2021/08/07 11:51:24;;;;;;;3.63;1.60;;;19.00;1.00;;;;;;5071416;28;20457;-81
2021/08/07 11:53:50;;;;;;;9.48;2.08;;;20.80;1.00;;;;;;5070355;28;20515;-82
2021/08/07 11:56:19;;;;;;;4.13;1.80;;;20.10;1.00;;;;;;5071363;28;20111;-82
2021/08/07 11:58:55;;;;;;;3.15;1.20;;;19.50;1.00;;;;;;5073416;28;20032;-82
2021/08/07 12:01:27;;;;;;;5.20;1.73;;;19.20;1.00;;;;;;5072074;28;20031;-82
2021/08/07 12:03:54;;;;;;;1.83;1.20;;;19.20;1.00;;;;;;5070967;28;20051;-82
2021/08/07 12:06:26;;;;;;;4.10;1.20;;;19.40;1.00;;;;;;5069974;28;20031;-82
2021/08/07 12:08:52;;;;;;;2.47;1.30;;;19.40;1.00;;;;;;5059176;28;20021;-82
2021/08/07 12:11:18;;;;;;;4.85;1.20;;;19.30;1.00;;;;;;5070699;28;20044;-82
2021/08/07 12:13:56;;;;;;;2.28;1.30;;;19.10;1.00;;;;;;5073073;28;20009;-82
2021/08/07 12:16:34;;;;;;;2.30;1.40;;;18.90;1.00;;;;;;5069565;28;20119;-82
2021/08/07 12:19:04;;;;;;;2.55;1.33;;;18.80;1.00;;;;;;5052771;28;20028;-81
2021/08/07 12:21:31;;;;;;;1.95;1.30;;;18.90;1.00;;;;;;5070629;28;20090;-82
2021/08/07 12:24:04;;;;;;;3.38;1.20;;;19.00;1.00;;;;;;5070596;28;20561;-82
2021/08/07 12:26:32;;;;;;;1.98;1.10;;;19.20;1.00;;;;;;5070418;28;20025;-82
2021/08/07 12:29:03;;;;;;;4.35;1.40;;;19.20;1.00;;;;;;5072125;28;20082;-82
2021/08/07 12:31:46;;;;;;;2.15;1.33;;;19.20;1.00;;;;;;5071851;28;20431;-82
2021/08/07 12:34:22;;;;;;;2.05;1.27;;;19.10;1.00;;;;;;5070044;28;20021;-82
2021/08/07 12:37:06;;;;;;;2.67;1.23;;;18.80;1.00;;;;;;5067943;28;20479;-82
2021/08/07 12:39:42;;;;;;;2.20;1.20;;;19.00;1.00;;;;;;5070041;28;20397;-82
2021/08/07 12:42:10;;;;;;;3.70;1.30;;;18.90;1.00;;;;;;5070631;28;20437;-82
2021/08/07 12:44:36;;;;;;;2.38;1.40;;;18.90;1.00;;;;;;5068980;28;20084;-82
2021/08/07 12:47:02;;;;;;;5.88;1.40;;;19.00;1.00;;;;;;5071084;28;20108;-81
2021/08/07 12:49:32;;;;;;;3.47;1.30;;;19.10;1.00;;;;;;5068981;28;20029;-80
2021/08/07 12:52:03;;;;;;;1.23;0.80;;;19.20;1.00;;;;;;5069424;28;20037;-81
2021/08/07 12:54:29;;;;;;;1.95;1.00;;;18.90;1.00;;;;;;5069803;28;20060;-81
2021/08/07 12:56:56;;;;;;;1.70;0.80;;;18.90;1.00;;;;;;5070103;28;20056;-81
2021/08/07 12:59:23;;;;;;;1.67;1.00;;;18.90;1.00;;;;;;5054663;28;20070;-81
2021/08/07 13:02:03;;;;;;;1.42;1.10;;;19.10;1.00;;;;;;5072445;28;20047;-81
2021/08/07 13:05:03;;;;;;;1.13;1.00;;;19.00;1.00;;;;;;5070370;28;20040;-80